City Of Chicago — WDC2646 — position and weather

sailwx.info

Track history (hours):
 
Tides and Currents Weather Stations Pressure Air Temp Water Temp Dewpoint Dewpoint Depression Visibility Wind Speed Wind Dir Waves Ship Positions

City Of Chicago

Owner: Kirby Inland Marine LP, Houston, TX. More information available from US FCC via Universal Licensing System and Coast Guard Vessel Documentation Center.

Last reported at 2017-Sep-18 06:33 UTC. Time now 2017-Sep-22 18:53 UTC.
Position N 40°34' W 089°41'.

Length 43 m; draft 2.7 m.

Type: . MMSI: 366995960.

Date/timePositionNaut miles runAvg speedWind from/ knotsBaromVisibWave heightAir tempDewpointWater temp
2017-Sep-18 06:33N 40°34' W 089°41'0 0.2
2017-Sep-18 06:31N 40°34' W 089°41'  
2017-Sep-14 01:49N 38°58' W 090°33'1 4.1
2017-Sep-14 01:30N 38°57' W 090°32'2 4.0
2017-Sep-14 01:01N 38°58' W 090°30'2 4.3
2017-Sep-14 00:31N 38°58' W 090°27'3 5.1
2017-Sep-14 00:01N 38°58' W 090°24'3 5.2
2017-Sep-13 23:31N 38°56' W 090°21'3 5.1
2017-Sep-13 23:01N 38°55' W 090°18'  
Track history (hours):
 
Tides and Currents Weather Stations Pressure Air Temp Water Temp Dewpoint Dewpoint Depression Visibility Wind Speed Wind Dir Waves Ship Positions

City Of Chicago

Owner: Kirby Inland Marine LP, Houston, TX. More information available from US FCC via Universal Licensing System and Coast Guard Vessel Documentation Center.

Last reported at 2017-Sep-18 06:33 UTC. Time now 2017-Sep-22 18:53 UTC.
Position N 40°34' W 089°41'.

Length 43 m; draft 2.7 m.

Type: . MMSI: 366995960.

Date/timePositionNaut miles runAvg speedWind from/ knotsBaromVisibWave heightAir tempDewpointWater temp
2017-Sep-18 06:33N 40°34' W 089°41'0 0.2
2017-Sep-18 06:31N 40°34' W 089°41'  
2017-Sep-14 01:49N 38°58' W 090°33'1 4.1
2017-Sep-14 01:30N 38°57' W 090°32'2 4.0
2017-Sep-14 01:01N 38°58' W 090°30'2 4.3
2017-Sep-14 00:31N 38°58' W 090°27'3 5.1
2017-Sep-14 00:01N 38°58' W 090°24'3 5.2
2017-Sep-13 23:31N 38°56' W 090°21'3 5.1
2017-Sep-13 23:01N 38°55' W 090°18'  

Dump ship's entire track history